TimePST,TemperatureF,Dew PointF,Humidity,Sea Level PressureIn,VisibilityMPH,Wind Direction,Wind SpeedMPH,Gust SpeedMPH,PrecipitationIn,Events,Conditions,WindDirDegrees,DateUTC
12:58 AM,46.2,22.6,39,30.05,10.0,ENE,9.2,-,N/A,,Clear,60,2012-11-16 08:58:00
1:58 AM,48.4,22.1,36,30.06,10.0,West,4.6,-,N/A,,Partly Cloudy,280,2012-11-16 09:58:00
2:58 AM,45.0,21.9,40,30.06,10.0,ENE,3.5,-,N/A,,Partly Cloudy,60,2012-11-16 10:58:00
3:58 AM,44.2,21.6,41,30.05,10.0,NNE,3.5,-,N/A,,Overcast,30,2012-11-16 11:58:00
4:58 AM,47.8,23.0,38,30.05,10.0,SSE,2.3,-,N/A,,Mostly Cloudy,160,2012-11-16 12:58:00
5:58 AM,47.3,23.7,40,30.05,10.0,Calm,Calm,-,N/A,,Overcast,0,2012-11-16 13:58:00
6:58 AM,46.8,26.2,45,30.07,10.0,ENE,1.2,-,N/A,,Scattered Clouds,70,2012-11-16 14:58:00
6:59 AM,46.4,26.6,46,30.09,10.0,Variable,2.3,-,N/A,Rain,Light Rain,0,2012-11-16 14:59:00
7:10 AM,48.2,28.4,46,30.09,10.0,Calm,Calm,-,N/A,,Mostly Cloudy,0,2012-11-16 15:10:00
7:22 AM,48.2,28.4,46,30.09,-9999.0,Calm,Calm,-,N/A,Rain,Light Rain,0,2012-11-16 15:22:00
7:33 AM,48.2,32.0,54,30.10,10.0,Calm,Calm,-,N/A,,Scattered Clouds,0,2012-11-16 15:33:00
7:58 AM,48.7,30.9,50,30.09,10.0,NW,3.5,-,0.00,,Scattered Clouds,320,2012-11-16 15:58:00
8:58 AM,51.8,30.0,43,30.10,10.0,South,3.5,-,N/A,,Scattered Clouds,180,2012-11-16 16:58:00
9:58 AM,57.0,25.7,30,30.10,10.0,Calm,Calm,-,N/A,,Mostly Cloudy,0,2012-11-16 17:58:00
10:58 AM,60.1,26.4,28,30.07,10.0,Calm,Calm,-,N/A,,Mostly Cloudy,0,2012-11-16 18:58:00
11:09 AM,60.8,26.6,27,30.09,10.0,Calm,Calm,-,N/A,Rain,Light Rain,0,2012-11-16 19:09:00
11:18 AM,60.8,26.6,27,30.08,10.0,South,2.3,-,N/A,,Scattered Clouds,170,2012-11-16 19:18:00
11:58 AM,62.1,27.1,27,30.05,10.0,Calm,Calm,-,0.00,,Scattered Clouds,20,2012-11-16 19:58:00
12:31 PM,62.6,26.6,26,30.04,10.0,ENE,9.2,-,N/A,Rain,Light Rain,70,2012-11-16 20:31:00
12:40 PM,62.6,26.6,26,30.04,10.0,ENE,8.1,-,N/A,,Partly Cloudy,70,2012-11-16 20:40:00
12:58 PM,63.5,25.5,24,30.01,10.0,NE,9.2,-,0.00,,Partly Cloudy,50,2012-11-16 20:58:00
1:58 PM,65.8,25.2,21,30.00,10.0,East,9.2,-,N/A,,Scattered Clouds,80,2012-11-16 21:58:00
2:58 PM,66.6,26.6,22,30.00,10.0,ENE,11.5,-,N/A,,Clear,70,2012-11-16 22:58:00
3:58 PM,65.3,23.4,20,30.00,10.0,NE,4.6,-,N/A,,Mostly Cloudy,50,2012-11-16 23:58:00
4:58 PM,62.2,24.3,23,29.99,10.0,East,8.1,-,N/A,,Overcast,80,2012-11-17 00:58:00
5:58 PM,62.1,24.3,24,30.01,10.0,ENE,10.4,-,N/A,,Overcast,70,2012-11-17 01:58:00
6:58 PM,61.0,23.2,24,30.01,10.0,ENE,12.7,-,N/A,,Overcast,60,2012-11-17 02:58:00
7:58 PM,61.2,23.5,24,30.01,10.0,NE,12.7,-,N/A,,Overcast,40,2012-11-17 03:58:00
8:58 PM,59.2,25.2,27,30.03,10.0,East,5.8,-,N/A,,Clear,90,2012-11-17 04:58:00
9:58 PM,57.2,24.3,28,30.02,10.0,ENE,10.4,-,N/A,,Clear,60,2012-11-17 05:58:00
10:58 PM,55.2,24.3,30,30.03,10.0,East,8.1,-,N/A,,Clear,90,2012-11-17 06:58:00
11:58 PM,53.8,24.1,32,30.01,10.0,NE,9.2,-,N/A,,Clear,50,2012-11-17 07:58:00